Terminal Aerodrome Forecast
Issued by NWS

Home | Current Version | Previous Version | Text Only | Print | Product List | Glossary On
Versions: 1 2 3 4 5 6 7 8 9 10 11 12 13 14 15 16 17 18
510
FTUS43 KDLH 220520
TAFBRD
TAF
KBRD 220520Z 2206/2306 20011KT P6SM FEW080
     FM221000 VRB03KT 5SM BR SKC
     FM221300 31004KT P6SM BKN200
     FM221900 20008KT P6SM SCT100
     FM230100 27008KT P6SM BKN100=

USA.gov is the U.S. government's official web portal to all federal, state and local government web resources and services.